Time;durP1;ratioP1;P1;durP2;ratioP2;P2;SDS_P1;SDS_P2;PMS_P1;PMS_P2;Temp;Humidity;BMP_temperature;BMP_pressure;BME280_temperature;BME280_humidity;BME280_pressure;Samples;Min_cycle;Max_cycle;Signal;HPM_P1;HPM_P2
2022/06/18 00:00:51;;;;;;;4.75;2.50;;;22.20;90.80;;;;;;4991473;28;20438;-87
2022/06/18 00:03:18;;;;;;;5.60;2.70;;;22.10;90.50;;;;;;4975664;28;20038;-87
2022/06/18 00:05:46;;;;;;;5.40;2.70;;;22.20;90.50;;;;;;4993486;28;20038;-87
2022/06/18 00:08:30;;;;;;;3.53;2.30;;;22.10;90.50;;;;;;4993296;28;20033;-89
2022/06/18 00:22:32;;;;;;;3.80;2.50;;;22.10;90.70;;;;;;4992949;28;20037;-88
2022/06/18 00:26:14;;;;;;;;;;;;;;;;;;;;;
2022/06/18 00:29:51;;;;;;;;;;;;;;;;;;;;;
2022/06/18 00:33:03;;;;;;;5.00;2.45;;;22.00;90.80;;;;;;4991455;28;20073;-89
2022/06/18 00:36:26;;;;;;;;;;;;;;;;;;;;;
2022/06/18 00:40:11;;;;;;;;;;;;;;;;;;;;;
2022/06/18 00:43:25;;;;;;;5.47;2.70;;;22.00;90.70;;;;;;4992235;28;20439;-88
2022/06/18 00:50:54;;;;;;;5.57;3.13;;;22.00;90.60;;;;;;4964092;28;20030;-89
2022/06/18 00:53:42;;;;;;;4.57;2.60;;;22.00;90.60;;;;;;4969100;22;20055;-85
2022/06/18 00:56:19;;;;;;;4.65;2.80;;;22.00;90.60;;;;;;4971209;28;20041;-85
2022/06/18 00:58:56;;;;;;;5.75;2.85;;;22.00;90.60;;;;;;4955009;28;20026;-87
2022/06/18 01:01:32;;;;;;;6.70;2.88;;;22.10;90.60;;;;;;4970973;28;20073;-87
2022/06/18 01:03:57;;;;;;;4.72;2.88;;;22.10;90.50;;;;;;4970770;28;20043;-87
2022/06/18 01:06:32;;;;;;;5.35;2.60;;;22.10;90.50;;;;;;4970759;28;20027;-87
2022/06/18 01:09:06;;;;;;;3.85;2.70;;;22.10;90.40;;;;;;4970728;28;20403;-87
2022/06/18 01:11:35;;;;;;;6.32;2.58;;;22.10;90.40;;;;;;4954831;28;20444;-86
2022/06/18 01:14:05;;;;;;;4.05;2.53;;;22.10;90.40;;;;;;4970792;28;20035;-87
2022/06/18 01:16:34;;;;;;;7.03;2.53;;;22.10;90.20;;;;;;4954821;28;20039;-87
2022/06/18 01:19:02;;;;;;;3.67;2.47;;;22.10;90.20;;;;;;4970647;28;20031;-85
2022/06/18 01:21:57;;;;;;;7.78;2.50;;;22.10;90.10;;;;;;4970864;28;20027;-87
2022/06/18 01:24:38;;;;;;;5.97;2.42;;;22.10;89.90;;;;;;4954656;28;20134;-87
2022/06/18 01:27:07;;;;;;;5.05;2.72;;;22.10;89.80;;;;;;4970751;28;20054;-87
2022/06/18 01:29:35;;;;;;;7.47;2.80;;;22.10;89.80;;;;;;4970426;28;20047;-87
2022/06/18 01:32:01;;;;;;;6.78;2.80;;;22.10;89.70;;;;;;4970639;28;20027;-87
2022/06/18 01:34:28;;;;;;;5.47;2.90;;;22.10;89.60;;;;;;4970691;28;20034;-86
2022/06/18 01:36:58;;;;;;;7.18;2.70;;;22.10;89.50;;;;;;4970578;28;20309;-87
2022/06/18 01:43:16;;;;;;;5.00;3.00;;;22.10;89.30;;;;;;4974090;28;20086;-87
2022/06/18 01:45:44;;;;;;;5.68;2.55;;;22.20;89.50;;;;;;4974503;28;20134;-84
2022/06/18 01:48:30;;;;;;;5.13;2.67;;;22.20;89.40;;;;;;4974515;28;20027;-85
2022/06/18 01:51:05;;;;;;;7.88;2.60;;;22.20;89.30;;;;;;4958581;28;20057;-87
2022/06/18 01:54:03;;;;;;;4.50;2.85;;;22.20;89.30;;;;;;4974191;28;20034;-87
2022/06/18 01:56:37;;;;;;;4.47;2.65;;;22.20;89.10;;;;;;4963457;28;20050;-87
2022/06/18 01:59:14;;;;;;;3.90;2.47;;;22.20;89.20;;;;;;4974025;28;20122;-87
2022/06/18 02:01:44;;;;;;;8.43;2.55;;;22.20;89.20;;;;;;4958285;28;20110;-87
2022/06/18 02:04:12;;;;;;;4.05;2.60;;;22.20;89.10;;;;;;4973878;28;20094;-85
2022/06/18 02:06:38;;;;;;;4.57;2.40;;;22.20;89.20;;;;;;4957735;28;20031;-86
2022/06/18 02:09:10;;;;;;;7.15;2.55;;;22.20;89.10;;;;;;4957724;28;20039;-87
2022/06/18 02:11:36;;;;;;;4.88;2.63;;;22.20;89.10;;;;;;4958091;28;20419;-87
2022/06/18 02:14:12;;;;;;;4.55;2.53;;;22.20;89.20;;;;;;4973913;28;20042;-87
2022/06/18 02:16:44;;;;;;;5.07;2.47;;;22.20;89.30;;;;;;4975411;28;20046;-87
2022/06/18 02:19:16;;;;;;;6.45;2.60;;;22.20;89.30;;;;;;4973698;28;20034;-87
2022/06/18 02:21:47;;;;;;;4.05;2.55;;;22.10;89.20;;;;;;4973839;28;20220;-86
2022/06/18 02:24:12;;;;;;;5.00;2.75;;;22.10;89.30;;;;;;4973590;28;20031;-87
2022/06/18 02:26:45;;;;;;;3.88;2.50;;;22.10;89.20;;;;;;4974706;28;20030;-87
2022/06/18 02:29:26;;;;;;;4.95;2.55;;;22.10;89.30;;;;;;4973394;28;20027;-87
2022/06/18 02:31:52;;;;;;;4.00;2.10;;;22.10;89.30;;;;;;4975058;28;20038;-87
2022/06/18 02:34:26;;;;;;;4.28;2.22;;;22.10;89.40;;;;;;4974713;28;20026;-87
2022/06/18 02:36:54;;;;;;;6.18;2.50;;;22.10;89.60;;;;;;4973534;28;20495;-86
2022/06/18 02:39:28;;;;;;;4.82;2.63;;;22.10;89.60;;;;;;4973410;28;20113;-87
2022/06/18 02:42:08;;;;;;;4.32;2.20;;;22.10;89.80;;;;;;4973484;28;20042;-87
2022/06/18 02:44:38;;;;;;;4.30;2.58;;;22.10;89.90;;;;;;4973149;28;20031;-87
2022/06/18 02:47:08;;;;;;;5.30;2.72;;;22.00;90.00;;;;;;4974611;28;20420;-87
2022/06/18 02:49:39;;;;;;;5.25;2.40;;;22.00;90.00;;;;;;4973163;28;20424;-87
2022/06/18 02:52:06;;;;;;;4.75;2.50;;;22.00;90.00;;;;;;4957280;28;20292;-87
2022/06/18 02:54:33;;;;;;;5.32;2.50;;;22.00;90.00;;;;;;4973365;28;20400;-87
2022/06/18 02:57:03;;;;;;;6.75;2.78;;;22.00;90.10;;;;;;4957209;28;20050;-87
2022/06/18 02:59:30;;;;;;;6.72;2.63;;;22.00;90.20;;;;;;4973126;28;20030;-87
2022/06/18 03:01:56;;;;;;;3.92;2.00;;;21.90;90.20;;;;;;4973257;28;20031;-87
2022/06/18 03:04:24;;;;;;;4.93;2.33;;;21.90;90.30;;;;;;4973094;28;20034;-87
2022/06/18 03:06:53;;;;;;;4.70;2.10;;;21.90;90.30;;;;;;4972825;28;20070;-87
2022/06/18 03:09:19;;;;;;;5.85;2.38;;;21.90;90.40;;;;;;4974154;28;20111;-86
2022/06/18 03:14:29;;;;;;;4.63;2.45;;;21.90;90.40;;;;;;4972845;28;20114;-85
2022/06/18 03:16:55;;;;;;;5.03;2.42;;;21.80;90.40;;;;;;4972667;28;20031;-85
2022/06/18 03:19:35;;;;;;;3.42;2.22;;;21.90;90.50;;;;;;4972603;28;20034;-86
2022/06/18 03:22:09;;;;;;;4.95;2.50;;;21.90;90.40;;;;;;4972917;28;20085;-85
2022/06/18 03:24:35;;;;;;;3.53;2.28;;;21.80;90.50;;;;;;4972827;28;20038;-86
2022/06/18 03:27:03;;;;;;;5.03;2.63;;;21.80;90.60;;;;;;4972529;28;20035;-85
2022/06/18 03:29:30;;;;;;;4.40;2.20;;;21.80;90.50;;;;;;4972449;28;20033;-86
2022/06/18 03:31:56;;;;;;;5.38;2.10;;;21.80;90.50;;;;;;4972705;28;20030;-85
2022/06/18 03:34:25;;;;;;;4.75;2.40;;;21.80;90.30;;;;;;4972701;28;20031;-85
2022/06/18 03:36:53;;;;;;;5.03;2.40;;;21.80;90.60;;;;;;4972378;28;20463;-85
2022/06/18 03:39:19;;;;;;;4.03;2.25;;;21.80;90.20;;;;;;4972771;28;20117;-85
2022/06/18 03:41:46;;;;;;;5.57;2.30;;;21.80;90.20;;;;;;4956461;28;20056;-86
2022/06/18 03:44:12;;;;;;;5.63;2.08;;;21.80;90.20;;;;;;4972657;28;20071;-86
2022/06/18 03:46:40;;;;;;;4.95;2.10;;;21.80;90.20;;;;;;4956662;28;20538;-86
2022/06/18 03:49:34;;;;;;;3.63;2.03;;;21.80;90.20;;;;;;4957412;28;20054;-86
2022/06/18 03:52:04;;;;;;;4.95;2.10;;;21.90;90.20;;;;;;4972555;28;20438;-87
2022/06/18 03:54:30;;;;;;;4.95;2.45;;;21.90;90.20;;;;;;4972106;28;20322;-86
2022/06/18 03:56:57;;;;;;;6.30;3.22;;;21.90;90.20;;;;;;4972494;28;20088;-86
2022/06/18 03:59:24;;;;;;;4.28;2.60;;;21.80;90.30;;;;;;4956329;28;20030;-86
2022/06/18 04:01:51;;;;;;;6.45;2.80;;;21.80;90.40;;;;;;4971663;28;20450;-86
2022/06/18 04:04:18;;;;;;;5.50;2.50;;;21.80;90.50;;;;;;4971934;28;20031;-87
2022/06/18 04:06:47;;;;;;;5.78;2.80;;;21.80;90.60;;;;;;4971999;28;20427;-86
2022/06/18 04:09:32;;;;;;;5.47;2.88;;;21.80;90.70;;;;;;4973150;28;20105;-86
2022/06/18 04:11:58;;;;;;;7.40;3.33;;;21.70;90.80;;;;;;4955797;28;20034;-87
2022/06/18 04:14:25;;;;;;;6.35;3.72;;;21.80;90.80;;;;;;4955879;28;20046;-87
2022/06/18 04:17:04;;;;;;;6.15;3.40;;;21.70;90.80;;;;;;4972899;28;20114;-87
2022/06/18 04:19:30;;;;;;;6.38;2.85;;;21.70;90.90;;;;;;4971435;28;20030;-86
2022/06/18 04:21:56;;;;;;;5.70;2.88;;;21.70;90.90;;;;;;4971679;28;20027;-86
2022/06/18 04:24:31;;;;;;;5.38;2.80;;;21.70;91.00;;;;;;4957096;28;20158;-86
2022/06/18 04:26:58;;;;;;;4.40;2.20;;;21.70;90.90;;;;;;4971631;28;20163;-87
2022/06/18 04:29:25;;;;;;;5.32;2.22;;;21.80;90.70;;;;;;4971505;28;20058;-87
2022/06/18 04:31:51;;;;;;;4.03;2.30;;;21.80;90.70;;;;;;4971660;28;20034;-87
2022/06/18 04:34:19;;;;;;;5.47;2.53;;;21.80;90.70;;;;;;4971561;28;20165;-87
2022/06/18 04:37:03;;;;;;;4.50;2.25;;;21.80;90.60;;;;;;4972641;28;20519;-86
2022/06/18 04:39:37;;;;;;;5.00;2.15;;;21.90;90.80;;;;;;4971397;28;20038;-86
2022/06/18 04:42:23;;;;;;;6.40;2.45;;;21.80;90.90;;;;;;4971004;28;20042;-87
2022/06/18 04:44:51;;;;;;;4.18;2.35;;;21.80;90.90;;;;;;4955385;28;20184;-86
2022/06/18 04:47:22;;;;;;;3.78;2.20;;;21.80;91.00;;;;;;4970968;28;20077;-87
2022/06/18 04:49:50;;;;;;;3.72;2.20;;;21.90;91.10;;;;;;4970956;28;20035;-87
2022/06/18 04:52:17;;;;;;;4.68;2.00;;;21.80;91.20;;;;;;4971142;28;20035;-87
2022/06/18 04:54:52;;;;;;;5.05;2.17;;;21.90;91.10;;;;;;4971300;28;20415;-86
2022/06/18 04:57:21;;;;;;;4.50;2.25;;;21.90;91.00;;;;;;4971287;28;20061;-86
2022/06/18 04:59:48;;;;;;;4.93;2.40;;;21.90;90.90;;;;;;4971200;28;20046;-86
2022/06/18 05:02:30;;;;;;;3.88;2.33;;;22.00;91.00;;;;;;4971002;28;20038;-86
2022/06/18 05:05:23;;;;;;;6.03;2.33;;;22.00;91.00;;;;;;4970802;28;20523;-87
2022/06/18 05:08:07;;;;;;;4.03;2.78;;;22.00;91.00;;;;;;4972504;28;20034;-86
2022/06/18 05:11:06;;;;;;;4.20;2.60;;;22.10;91.00;;;;;;4971912;28;20109;-87
2022/06/18 05:13:41;;;;;;;3.65;2.00;;;22.10;90.90;;;;;;4970993;28;20034;-87
2022/06/18 05:16:26;;;;;;;3.65;2.28;;;22.10;90.90;;;;;;4971994;28;20102;-86
2022/06/18 05:18:52;;;;;;;4.03;2.20;;;22.10;90.80;;;;;;4954820;28;20435;-87
2022/06/18 05:21:18;;;;;;;3.95;2.10;;;22.20;90.90;;;;;;4954779;28;20121;-87
2022/06/18 05:23:44;;;;;;;4.90;2.08;;;22.20;90.90;;;;;;4970668;28;20133;-87
2022/06/18 05:26:15;;;;;;;4.57;2.25;;;22.20;90.80;;;;;;4970447;28;20054;-87
2022/06/18 05:28:41;;;;;;;4.80;2.60;;;22.20;90.80;;;;;;4970552;28;20408;-87
2022/06/18 05:31:07;;;;;;;4.00;2.20;;;22.20;90.90;;;;;;4970629;28;20023;-86
2022/06/18 05:33:34;;;;;;;4.38;2.00;;;22.30;90.90;;;;;;4970663;28;20034;-86
2022/06/18 05:36:00;;;;;;;3.95;2.05;;;22.30;90.90;;;;;;4970861;28;20031;-87
2022/06/18 05:38:26;;;;;;;5.00;2.60;;;22.30;90.90;;;;;;4970999;28;20026;-86
2022/06/18 05:40:53;;;;;;;5.18;2.30;;;22.30;90.90;;;;;;4971568;28;20026;-86
2022/06/18 05:43:18;;;;;;;4.75;2.10;;;22.40;91.00;;;;;;4970510;28;20031;-86
2022/06/18 05:45:44;;;;;;;5.90;2.28;;;22.40;90.90;;;;;;4971707;28;20027;-85
2022/06/18 05:48:11;;;;;;;4.03;2.33;;;22.40;90.90;;;;;;4970529;28;20034;-86
2022/06/18 05:50:37;;;;;;;5.88;2.25;;;22.50;90.90;;;;;;4970422;28;20019;-86
2022/06/18 05:53:03;;;;;;;2.63;1.98;;;22.40;90.90;;;;;;4971760;28;20534;-86
2022/06/18 05:55:52;;;;;;;3.97;2.47;;;22.40;90.90;;;;;;4952598;28;20278;-86
2022/06/18 05:58:25;;;;;;;3.53;2.05;;;22.50;90.90;;;;;;4970664;28;20031;-86
2022/06/18 06:00:54;;;;;;;5.35;2.17;;;22.50;90.90;;;;;;4970325;28;20038;-86
2022/06/18 06:03:20;;;;;;;5.00;2.13;;;22.50;90.90;;;;;;4970418;28;20027;-85
2022/06/18 06:05:47;;;;;;;3.92;2.22;;;22.60;91.00;;;;;;4954183;28;20046;-86
2022/06/18 06:08:14;;;;;;;4.63;3.00;;;22.60;91.00;;;;;;4970673;28;20026;-85
2022/06/18 06:13:27;;;;;;;5.45;3.45;;;22.70;91.00;;;;;;4971726;28;20174;-86
2022/06/18 06:15:54;;;;;;;6.03;3.55;;;22.70;91.00;;;;;;4954116;28;20125;-85
2022/06/18 06:18:22;;;;;;;6.28;3.25;;;22.70;90.90;;;;;;4970280;28;20384;-85
2022/06/18 06:20:51;;;;;;;6.90;3.53;;;22.70;90.80;;;;;;4971522;28;20538;-86
2022/06/18 06:23:17;;;;;;;6.70;3.40;;;22.80;90.70;;;;;;4970185;28;20435;-86
2022/06/18 06:25:45;;;;;;;5.20;3.10;;;22.80;90.60;;;;;;4973857;28;20030;-86
2022/06/18 06:28:19;;;;;;;6.78;3.17;;;22.90;90.60;;;;;;4975114;28;20571;-86
2022/06/18 06:30:45;;;;;;;6.50;3.15;;;22.90;90.50;;;;;;4974779;28;20066;-87
2022/06/18 06:33:11;;;;;;;6.22;3.63;;;22.90;90.50;;;;;;4975045;28;20022;-87
2022/06/18 06:35:37;;;;;;;4.90;2.97;;;23.00;90.60;;;;;;4974831;28;20063;-87
2022/06/18 06:38:04;;;;;;;6.32;3.38;;;23.00;90.50;;;;;;4973938;28;20502;-86
2022/06/18 06:40:34;;;;;;;7.88;3.70;;;23.10;90.50;;;;;;4974560;28;20480;-86
2022/06/18 06:43:03;;;;;;;6.95;3.28;;;23.10;90.50;;;;;;4974797;28;20206;-86
2022/06/18 06:45:32;;;;;;;7.47;3.50;;;23.10;90.10;;;;;;4973315;28;20031;-86
2022/06/18 06:48:01;;;;;;;8.80;4.22;;;23.20;90.10;;;;;;4973450;28;20070;-86
2022/06/18 06:50:29;;;;;;;8.30;3.75;;;23.20;90.10;;;;;;4974459;28;20023;-86
2022/06/18 06:52:55;;;;;;;6.95;3.47;;;23.20;90.00;;;;;;4974577;28;20027;-86
2022/06/18 06:58:21;;;;;;;8.20;3.70;;;23.30;89.90;;;;;;4974730;28;20031;-64
2022/06/18 07:00:58;;;;;;;12.50;4.00;;;23.40;89.00;;;;;;4974976;28;20030;-64
2022/06/18 07:03:28;;;;;;;15.57;4.18;;;23.50;89.00;;;;;;4974778;28;20038;-64
2022/06/18 07:05:56;;;;;;;11.18;4.15;;;23.50;88.30;;;;;;4974608;28;20495;-65
2022/06/18 07:08:23;;;;;;;16.00;4.20;;;23.60;87.90;;;;;;4974736;28;20106;-64
2022/06/18 07:10:50;;;;;;;10.27;3.95;;;23.60;87.70;;;;;;4974358;28;20027;-64
2022/06/18 07:13:18;;;;;;;8.82;3.60;;;23.60;87.30;;;;;;4974802;28;20085;-65
2022/06/18 07:15:45;;;;;;;12.07;4.60;;;23.70;87.80;;;;;;4974542;28;20499;-64
2022/06/18 07:18:20;;;;;;;10.82;4.57;;;23.70;87.80;;;;;;4974820;28;20442;-63
2022/06/18 07:20:46;;;;;;;10.20;4.13;;;23.70;87.60;;;;;;4974314;28;20069;-64
2022/06/18 07:23:12;;;;;;;8.63;3.72;;;23.80;87.30;;;;;;4974319;28;20034;-64
2022/06/18 07:25:40;;;;;;;9.50;3.60;;;23.80;87.40;;;;;;4974318;28;20037;-64
2022/06/18 07:28:06;;;;;;;11.38;4.10;;;23.80;87.50;;;;;;4974414;28;20050;-64
2022/06/18 07:30:34;;;;;;;7.10;3.60;;;23.80;87.40;;;;;;4974320;28;20077;-64
2022/06/18 07:33:00;;;;;;;9.77;4.30;;;23.80;87.40;;;;;;4974626;28;20023;-64
2022/06/18 07:35:31;;;;;;;11.57;4.00;;;23.90;87.50;;;;;;4974633;28;20019;-64
2022/06/18 07:37:58;;;;;;;9.70;3.40;;;23.90;87.60;;;;;;4972978;28;20037;-64
2022/06/18 07:40:29;;;;;;;10.07;3.92;;;23.90;87.60;;;;;;4973990;28;20436;-64
2022/06/18 07:42:56;;;;;;;13.57;4.00;;;23.90;87.80;;;;;;4974074;28;20031;-64
2022/06/18 07:45:24;;;;;;;10.30;4.18;;;24.00;87.50;;;;;;4973972;28;20034;-64
2022/06/18 07:47:52;;;;;;;9.27;5.07;;;24.00;87.50;;;;;;4973912;28;20101;-64
2022/06/18 07:50:20;;;;;;;11.82;4.20;;;24.10;87.40;;;;;;4974109;28;20045;-64
2022/06/18 07:52:47;;;;;;;10.40;3.90;;;24.20;86.80;;;;;;4973832;28;20031;-64
2022/06/18 07:55:31;;;;;;;17.08;4.32;;;24.20;87.10;;;;;;4973861;28;20023;-64
2022/06/18 07:57:57;;;;;;;12.52;4.28;;;24.30;86.60;;;;;;4973575;28;20022;-64
2022/06/18 08:00:24;;;;;;;14.32;4.18;;;24.30;87.10;;;;;;4973492;28;20398;-64
2022/06/18 08:02:50;;;;;;;14.25;5.05;;;24.30;87.10;;;;;;4973660;28;20029;-64
2022/06/18 08:05:25;;;;;;;10.10;4.75;;;24.30;86.70;;;;;;4973741;28;20094;-64
2022/06/18 08:07:51;;;;;;;14.38;5.93;;;24.40;86.70;;;;;;4973420;28;20030;-64
2022/06/18 08:10:18;;;;;;;25.13;6.72;;;24.40;86.80;;;;;;4973505;28;20074;-64
2022/06/18 08:12:44;;;;;;;17.15;5.82;;;24.50;86.50;;;;;;4973460;28;20026;-64
2022/06/18 08:15:10;;;;;;;13.02;5.13;;;24.50;86.60;;;;;;4973557;28;20027;-64
2022/06/18 08:17:36;;;;;;;12.55;5.00;;;24.50;86.70;;;;;;4973528;28;20030;-65
2022/06/18 08:20:08;;;;;;;15.57;5.68;;;24.50;87.20;;;;;;4973248;28;20031;-65
2022/06/18 08:22:36;;;;;;;17.42;6.30;;;24.50;87.50;;;;;;4973427;28;20399;-65
2022/06/18 08:25:05;;;;;;;16.80;9.45;;;24.60;87.60;;;;;;4973376;28;20472;-66
2022/06/18 08:27:31;;;;;;;14.25;6.78;;;24.60;87.70;;;;;;4973063;28;20399;-66
2022/06/18 08:29:57;;;;;;;11.00;5.05;;;24.70;87.30;;;;;;4972999;28;20023;-65
2022/06/18 08:32:23;;;;;;;10.77;4.70;;;24.70;87.20;;;;;;4973204;28;20027;-65
2022/06/18 08:34:49;;;;;;;9.27;4.53;;;24.80;86.60;;;;;;4973024;28;20161;-65
2022/06/18 08:37:15;;;;;;;11.48;4.75;;;24.80;86.50;;;;;;4972860;28;20035;-65
2022/06/18 08:39:41;;;;;;;8.15;3.97;;;24.80;86.60;;;;;;4972834;28;20106;-66
2022/06/18 08:42:27;;;;;;;7.25;4.80;;;24.90;86.10;;;;;;4973027;28;20034;-66
2022/06/18 08:45:10;;;;;;;11.10;6.05;;;24.80;86.70;;;;;;4972959;28;20041;-65
2022/06/18 08:47:46;;;;;;;17.15;6.80;;;24.80;86.10;;;;;;4972526;28;20027;-66
2022/06/18 08:50:39;;;;;;;21.70;6.07;;;25.00;85.80;;;;;;4972744;28;20081;-65
2022/06/18 08:53:15;;;;;;;9.15;3.60;;;25.00;84.80;;;;;;4972929;28;20023;-65
2022/06/18 08:55:47;;;;;;;11.18;4.55;;;25.10;84.00;;;;;;4972608;28;20502;-65
2022/06/18 08:58:40;;;;;;;10.95;4.40;;;25.10;83.40;;;;;;4972660;28;20037;-66
2022/06/18 09:01:22;;;;;;;10.82;4.88;;;25.20;82.50;;;;;;4972758;28;20110;-65
2022/06/18 09:04:04;;;;;;;9.80;5.93;;;25.20;82.60;;;;;;4972608;28;20118;-65
2022/06/18 09:06:52;;;;;;;9.48;4.00;;;25.20;83.10;;;;;;4972426;28;20027;-65
2022/06/18 09:09:31;;;;;;;10.00;5.70;;;25.20;82.80;;;;;;4971206;28;20030;-65
2022/06/18 09:12:14;;;;;;;10.70;4.43;;;25.30;82.90;;;;;;4973067;28;20365;-65
2022/06/18 09:14:51;;;;;;;15.30;5.82;;;25.40;82.10;;;;;;4972855;28;20026;-65
2022/06/18 09:17:39;;;;;;;17.57;5.30;;;25.50;81.70;;;;;;4972518;28;20027;-65
2022/06/18 09:20:11;;;;;;;15.40;5.75;;;25.60;80.60;;;;;;4972504;28;20031;-65
2022/06/18 09:22:47;;;;;;;9.73;4.65;;;25.60;80.30;;;;;;4972491;28;20030;-65
2022/06/18 09:25:18;;;;;;;13.95;4.68;;;25.60;81.00;;;;;;4972318;28;20097;-66
2022/06/18 09:27:53;;;;;;;13.43;5.47;;;25.70;80.60;;;;;;4972146;28;20061;-65
2022/06/18 09:30:43;;;;;;;10.75;4.63;;;25.70;80.50;;;;;;4972192;28;20027;-65
2022/06/18 09:33:16;;;;;;;14.43;5.78;;;25.70;80.30;;;;;;4967446;28;20078;-65
2022/06/18 09:35:53;;;;;;;15.23;6.20;;;25.80;79.90;;;;;;4972100;28;20026;-65
2022/06/18 09:38:42;;;;;;;10.35;4.95;;;25.90;80.00;;;;;;4972529;28;20026;-65
2022/06/18 09:41:17;;;;;;;12.60;4.72;;;25.90;79.90;;;;;;4972560;28;20043;-65
2022/06/18 09:43:59;;;;;;;11.27;4.25;;;26.00;78.70;;;;;;4972176;28;20038;-65
2022/06/18 09:46:39;;;;;;;14.60;4.88;;;26.10;79.10;;;;;;4972151;28;20400;-65
2022/06/18 09:49:06;;;;;;;12.65;4.57;;;26.20;78.20;;;;;;4971899;28;20023;-66
2022/06/18 09:52:13;;;;;;;47.53;6.03;;;26.20;78.30;;;;;;4972080;28;20081;-65
2022/06/18 09:55:05;;;;;;;12.57;4.30;;;26.30;78.60;;;;;;4970023;28;20202;-65
2022/06/18 09:57:37;;;;;;;13.10;4.63;;;26.30;78.30;;;;;;4971922;28;20027;-66
2022/06/18 10:00:14;;;;;;;15.30;5.00;;;26.30;78.20;;;;;;4973215;28;20039;-66
2022/06/18 10:06:52;;;;;;;11.25;5.20;;;26.30;77.20;;;;;;4975953;28;20030;-65
2022/06/18 10:08:50;;;;;;;11.10;4.78;;;26.40;77.60;;;;;;4975513;28;20027;-65
2022/06/18 10:11:17;;;;;;;14.73;4.78;;;26.40;78.00;;;;;;4975758;28;20109;-65
2022/06/18 10:14:00;;;;;;;12.15;5.45;;;26.40;77.70;;;;;;4975699;28;20034;-66
2022/06/18 10:16:34;;;;;;;10.25;4.10;;;26.50;78.00;;;;;;4975547;28;20031;-65
2022/06/18 10:19:13;;;;;;;14.82;4.57;;;26.50;77.30;;;;;;4975700;28;20435;-65
2022/06/18 10:21:54;;;;;;;13.23;5.00;;;26.60;77.80;;;;;;4975545;28;20081;-65
2022/06/18 10:24:43;;;;;;;14.82;6.75;;;26.60;77.50;;;;;;4975494;28;20031;-65
2022/06/18 10:27:21;;;;;;;9.38;3.58;;;26.70;77.80;;;;;;4975279;28;20031;-66
2022/06/18 10:30:06;;;;;;;17.17;4.97;;;26.70;77.40;;;;;;4975349;28;20030;-65
2022/06/18 10:32:57;;;;;;;12.18;3.85;;;26.80;77.00;;;;;;4975391;28;20126;-65
2022/06/18 10:35:29;;;;;;;14.90;5.75;;;26.80;76.60;;;;;;4975579;28;20121;-65
2022/06/18 10:38:52;;;;;;;15.10;3.80;;;26.90;75.30;;;;;;4975258;28;20479;-65
2022/06/18 10:41:22;;;;;;;13.55;4.15;;;27.00;74.90;;;;;;4934187;29;20580;-65
2022/06/18 10:44:11;;;;;;;19.98;4.93;;;27.10;73.80;;;;;;4934480;29;20035;-65
2022/06/18 10:46:37;;;;;;;14.60;4.82;;;27.20;73.50;;;;;;4961019;28;20035;-65
2022/06/18 10:49:05;;;;;;;11.88;3.58;;;27.20;73.00;;;;;;4974855;28;20031;-65
2022/06/18 10:51:45;;;;;;;11.13;3.20;;;27.30;72.70;;;;;;4975051;28;20502;-65
2022/06/18 10:54:11;;;;;;;13.20;3.40;;;27.40;72.30;;;;;;4975258;28;20034;-65
2022/06/18 10:56:55;;;;;;;12.75;3.75;;;27.50;72.30;;;;;;4975248;28;20030;-66
2022/06/18 10:59:33;;;;;;;12.70;4.03;;;27.50;72.10;;;;;;4974760;28;20483;-65
2022/06/18 11:02:33;;;;;;;15.73;4.32;;;27.60;71.60;;;;;;4974766;28;20030;-65
2022/06/18 11:05:04;;;;;;;11.75;4.03;;;27.60;71.30;;;;;;4974775;28;20035;-65
2022/06/18 11:07:33;;;;;;;10.13;4.75;;;27.60;71.60;;;;;;4974619;28;20031;-65
2022/06/18 11:10:06;;;;;;;10.85;3.55;;;27.50;72.30;;;;;;4974454;28;20106;-65
2022/06/18 11:12:38;;;;;;;12.10;3.47;;;27.60;71.50;;;;;;4975278;28;20468;-65
2022/06/18 11:15:22;;;;;;;11.60;3.58;;;27.60;70.80;;;;;;4974645;28;20031;-66
2022/06/18 11:17:48;;;;;;;13.52;5.00;;;27.70;70.20;;;;;;4974277;28;20034;-65
2022/06/18 11:20:24;;;;;;;15.07;3.80;;;27.70;69.60;;;;;;4974362;28;20031;-65
2022/06/18 11:22:57;;;;;;;10.90;3.28;;;27.80;69.20;;;;;;4974330;28;20062;-65
2022/06/18 11:25:49;;;;;;;14.70;3.67;;;27.90;68.80;;;;;;4974556;28;20109;-65
2022/06/18 11:28:42;;;;;;;13.38;3.30;;;28.10;67.80;;;;;;4972956;28;20126;-65
2022/06/18 11:31:09;;;;;;;12.27;3.42;;;28.10;67.60;;;;;;4974233;28;20187;-65
2022/06/18 11:33:39;;;;;;;14.13;3.25;;;28.10;66.90;;;;;;4974273;28;20037;-65
2022/06/18 11:36:09;;;;;;;10.50;3.63;;;28.30;67.30;;;;;;4974450;28;20038;-65
2022/06/18 11:38:36;;;;;;;12.93;3.75;;;28.40;67.60;;;;;;4973948;28;20038;-65
2022/06/18 11:41:19;;;;;;;15.90;3.80;;;28.40;67.70;;;;;;4974057;28;20507;-65
2022/06/18 11:43:55;;;;;;;11.85;3.40;;;28.40;67.60;;;;;;4973895;28;20076;-65
2022/06/18 11:46:31;;;;;;;14.02;4.10;;;28.50;67.80;;;;;;4974144;28;20538;-65
2022/06/18 11:49:20;;;;;;;12.95;3.38;;;28.40;68.10;;;;;;4973891;28;20114;-66
2022/06/18 11:52:18;;;;;;;15.13;3.63;;;28.40;67.30;;;;;;4967349;28;20042;-66
2022/06/18 11:55:25;;;;;;;13.57;3.97;;;28.40;68.20;;;;;;4973657;28;20035;-65
2022/06/18 11:58:03;;;;;;;11.48;4.03;;;28.40;68.80;;;;;;4973671;28;20046;-65
2022/06/18 12:00:42;;;;;;;10.88;3.10;;;28.40;68.70;;;;;;4973458;28;20109;-65
2022/06/18 12:03:44;;;;;;;11.05;3.42;;;28.50;68.40;;;;;;4974279;28;20093;-65
2022/06/18 12:06:34;;;;;;;16.02;3.45;;;28.50;67.80;;;;;;4973740;28;20369;-65
2022/06/18 12:09:00;;;;;;;15.82;3.78;;;28.60;67.60;;;;;;4973418;28;20034;-65
2022/06/18 12:11:36;;;;;;;12.32;3.25;;;28.70;67.80;;;;;;4973378;28;20073;-65
2022/06/18 12:14:15;;;;;;;16.35;3.53;;;28.70;67.60;;;;;;4973677;28;20031;-65
2022/06/18 12:16:56;;;;;;;12.32;3.35;;;28.90;67.30;;;;;;4973433;28;20068;-65
2022/06/18 12:19:49;;;;;;;16.42;3.65;;;28.90;67.50;;;;;;4973335;28;20035;-65
2022/06/18 12:22:40;;;;;;;11.65;4.05;;;29.10;67.40;;;;;;4972977;28;20030;-65
2022/06/18 12:25:41;;;;;;;15.18;3.63;;;29.20;67.40;;;;;;4973160;28;20447;-65
2022/06/18 12:28:10;;;;;;;13.00;3.70;;;29.20;66.60;;;;;;4969259;28;20035;-65
2022/06/18 12:31:05;;;;;;;11.65;3.55;;;29.20;66.50;;;;;;4972930;28;20495;-65
2022/06/18 12:34:13;;;;;;;15.13;4.00;;;29.40;66.80;;;;;;4973247;28;20117;-65
2022/06/18 12:37:04;;;;;;;;;;;29.50;67.00;;;;;;4973640;28;20030;-65
2022/06/18 12:39:57;;;;;;;10.68;3.58;;;29.60;67.20;;;;;;4964850;28;20290;-65
2022/06/18 12:42:51;;;;;;;18.55;4.22;;;29.70;67.50;;;;;;4973142;28;20026;-65
2022/06/18 12:45:41;;;;;;;9.85;3.67;;;29.80;66.80;;;;;;4971665;28;20507;-65
2022/06/18 12:48:15;;;;;;;11.65;3.67;;;29.90;66.70;;;;;;4972850;28;20039;-65
2022/06/18 12:50:52;;;;;;;8.38;3.67;;;29.90;66.80;;;;;;4973330;28;20030;-65
2022/06/18 12:53:45;;;;;;;14.13;3.72;;;29.90;67.10;;;;;;4973216;28;20427;-65
2022/06/18 12:56:34;;;;;;;12.60;3.63;;;30.00;67.20;;;;;;4986575;23;20108;-66
2022/06/18 12:59:16;;;;;;;12.85;3.88;;;30.10;66.70;;;;;;4972397;28;20459;-67
2022/06/18 13:01:52;;;;;;;15.77;3.63;;;30.10;66.80;;;;;;4972923;28;20051;-67
2022/06/18 13:04:37;;;;;;;14.93;3.95;;;30.10;67.00;;;;;;4971427;28;20034;-67
2022/06/18 13:07:23;;;;;;;11.50;3.70;;;30.10;67.60;;;;;;4971070;28;20030;-67
2022/06/18 13:10:09;;;;;;;12.20;3.58;;;30.20;66.70;;;;;;4972575;28;20019;-68
2022/06/18 13:12:57;;;;;;;8.35;3.15;;;30.20;67.10;;;;;;4972585;28;20023;-66
2022/06/18 13:15:37;;;;;;;13.18;4.03;;;30.10;67.30;;;;;;4972358;28;20022;-67
2022/06/18 13:18:16;;;;;;;11.35;4.00;;;30.10;66.90;;;;;;4971306;28;20427;-67
2022/06/18 13:21:03;;;;;;;10.95;3.17;;;30.00;67.10;;;;;;4972655;28;20035;-67
2022/06/18 13:29:41;;;;;;;11.80;3.80;;;29.80;68.40;;;;;;4970967;28;20031;-67
2022/06/18 13:32:23;;;;;;;11.73;3.80;;;29.90;68.00;;;;;;4966655;28;20031;-67
2022/06/18 13:34:52;;;;;;;11.07;3.58;;;30.00;68.00;;;;;;4973518;28;20490;-67
2022/06/18 13:37:49;;;;;;;11.60;4.50;;;29.80;67.90;;;;;;4975185;28;20046;-67
2022/06/18 13:40:33;;;;;;;11.32;3.38;;;29.80;68.30;;;;;;4976418;28;20027;-67
2022/06/18 13:43:11;;;;;;;13.88;4.05;;;29.90;68.10;;;;;;4976268;28;20022;-67
2022/06/18 13:45:46;;;;;;;;;;;30.00;67.60;;;;;;4976700;28;20075;-67
2022/06/18 13:48:52;;;;;;;11.10;3.72;;;30.00;67.40;;;;;;4974985;28;20254;-67
2022/06/18 13:51:31;;;;;;;11.48;3.63;;;30.00;67.30;;;;;;4976085;28;20596;-67
2022/06/18 13:54:05;;;;;;;;;;;30.10;67.90;;;;;;4976520;28;20094;-67
2022/06/18 13:56:31;;;;;;;17.25;3.85;;;30.20;66.60;;;;;;4974804;28;19922;-67
2022/06/18 13:58:59;;;;;;;12.25;4.70;;;30.30;67.00;;;;;;4975814;28;20034;-67
2022/06/18 14:01:27;;;;;;;17.48;4.10;;;30.40;67.30;;;;;;4976093;28;20463;-67
2022/06/18 14:03:55;;;;;;;;;;;30.40;67.20;;;;;;4975272;28;20026;-67
2022/06/18 14:06:22;;;;;;;14.70;4.05;;;30.60;67.00;;;;;;4975785;28;20417;-67
2022/06/18 14:09:01;;;;;;;12.82;3.72;;;30.70;65.40;;;;;;4975834;28;20030;-67